createdAt,value
2023-03-27T00:02:32.886Z,10.86
2023-03-27T00:05:35.323Z,10.77
2023-03-27T00:08:37.238Z,10.85
2023-03-27T00:11:40.643Z,10.75
2023-03-27T00:14:42.541Z,10.91
2023-03-27T00:17:46.819Z,10.91
2023-03-27T00:20:48.792Z,10.86
2023-03-27T00:23:50.817Z,10.81
2023-03-27T00:26:54.991Z,10.75
2023-03-27T00:29:57.720Z,10.70
2023-03-27T00:32:59.751Z,10.74
2023-03-27T00:36:01.647Z,10.76
2023-03-27T00:39:05.152Z,10.80
2023-03-27T00:42:13.440Z,10.80
2023-03-27T00:45:18.467Z,10.75
2023-03-27T00:48:20.803Z,10.75
2023-03-27T00:51:25.359Z,10.59
2023-03-27T00:54:31.748Z,10.72
2023-03-27T00:57:37.036Z,10.60
2023-03-27T01:00:39.335Z,10.59
2023-03-27T01:03:42.719Z,10.53
2023-03-27T01:06:44.726Z,10.53
2023-03-27T01:09:46.605Z,10.53
2023-03-27T01:13:04.564Z,10.54
2023-03-27T01:16:11.910Z,10.57
2023-03-27T01:19:46.530Z,10.57
2023-03-27T01:23:58.603Z,10.56
2023-03-27T01:27:03.325Z,10.41
2023-03-27T01:30:14.012Z,10.58
2023-03-27T01:33:30.106Z,10.63
2023-03-27T01:37:06.678Z,10.52
2023-03-27T01:40:16.753Z,10.60
2023-03-27T01:43:26.558Z,10.54
2023-03-27T01:46:35.347Z,10.49
2023-03-27T01:49:43.236Z,10.32
2023-03-27T01:52:51.288Z,10.48
2023-03-27T01:55:59.186Z,10.39
2023-03-27T01:59:06.924Z,10.38
2023-03-27T02:02:13.428Z,10.45
2023-03-27T02:05:20.339Z,10.30
2023-03-27T02:08:27.387Z,10.39
2023-03-27T02:11:35.196Z,10.32
2023-03-27T02:14:42.382Z,10.46
2023-03-27T02:17:50.027Z,10.50
2023-03-27T02:20:52.117Z,10.43
2023-03-27T02:23:54.081Z,10.36
2023-03-27T02:27:02.033Z,10.34
2023-03-27T02:30:14.022Z,10.31
2023-03-27T02:33:23.396Z,10.31
2023-03-27T02:36:33.740Z,10.24
2023-03-27T02:39:41.479Z,10.26
2023-03-27T02:42:58.512Z,10.28
2023-03-27T02:46:06.463Z,10.17
2023-03-27T02:49:13.463Z,10.19
2023-03-27T02:52:21.096Z,10.24
2023-03-27T02:55:27.473Z,10.18
2023-03-27T02:58:36.426Z,10.18
2023-03-27T03:01:41.118Z,10.24
2023-03-27T03:04:46.805Z,10.22
2023-03-27T03:07:49.136Z,10.23
2023-03-27T03:10:51.058Z,10.23
2023-03-27T03:13:54.361Z,10.18
2023-03-27T03:16:56.349Z,10.21
2023-03-27T03:19:58.261Z,10.22
2023-03-27T03:23:00.612Z,10.24
2023-03-27T03:26:03.157Z,10.11
2023-03-27T03:29:06.455Z,10.21
2023-03-27T03:32:08.299Z,10.21
2023-03-27T03:35:10.352Z,10.25
2023-03-27T03:38:12.216Z,10.27
2023-03-27T03:41:14.181Z,10.19
2023-03-27T03:44:17.726Z,10.18
2023-03-27T03:47:19.701Z,10.13
2023-03-27T03:50:21.596Z,10.18
2023-03-27T03:53:23.572Z,10.06
2023-03-27T03:56:27.830Z,10.21
2023-03-27T03:59:31.404Z,10.08
2023-03-27T04:02:34.973Z,10.14
2023-03-27T04:05:37.723Z,10.10
2023-03-27T04:08:39.552Z,10.09
2023-03-27T04:11:41.443Z,10.13
2023-03-27T04:14:45.010Z,10.18
2023-03-27T04:17:48.649Z,10.13
2023-03-27T04:20:50.641Z,10.09
2023-03-27T04:23:52.555Z,10.02
2023-03-27T04:26:54.373Z,10.08
2023-03-27T04:30:01.239Z,10.13
2023-03-27T04:33:03.213Z,10.08
2023-03-27T04:36:09.426Z,10.04
2023-03-27T04:39:11.348Z,10.04
2023-03-27T04:42:16.967Z,10.07
2023-03-27T04:45:25.805Z,10.08
2023-03-27T04:48:27.855Z,10.09
2023-03-27T04:51:32.454Z,9.99
2023-03-27T04:54:34.405Z,10.01
2023-03-27T04:57:36.889Z,10.01
2023-03-27T05:00:40.440Z,10.03
2023-03-27T05:03:42.392Z,9.89
2023-03-27T05:06:44.493Z,9.91
2023-03-27T05:09:46.612Z,9.88
2023-03-27T05:12:51.721Z,9.92
2023-03-27T05:15:55.003Z,9.88
2023-03-27T05:18:56.942Z,9.94
2023-03-27T05:21:58.787Z,9.92
2023-03-27T05:25:01.658Z,9.94
2023-03-27T05:28:03.889Z,10.01
2023-03-27T05:31:08.794Z,10.02
2023-03-27T05:34:11.569Z,9.99
2023-03-27T05:37:13.474Z,10.00
2023-03-27T05:40:16.886Z,10.03
2023-03-27T05:43:18.822Z,9.95
2023-03-27T05:46:22.473Z,9.93
2023-03-27T05:49:24.451Z,9.89
2023-03-27T05:52:37.685Z,9.73
2023-03-27T05:59:29.716Z,9.76
2023-03-27T06:02:35.550Z,8.40
2023-03-27T06:05:40.351Z,7.69
2023-03-27T06:08:42.363Z,7.38
2023-03-27T06:11:44.931Z,7.31
2023-03-27T06:14:46.831Z,7.64
2023-03-27T06:17:50.196Z,7.57
2023-03-27T06:20:52.148Z,7.65
2023-03-27T06:23:54.372Z,7.46
2023-03-27T06:26:59.374Z,7.64
2023-03-27T06:30:01.441Z,7.27
2023-03-27T06:33:05.833Z,7.97
2023-03-27T06:36:08.729Z,8.64
2023-03-27T06:39:11.473Z,8.78
2023-03-27T06:42:13.635Z,9.40
2023-03-27T06:45:15.777Z,9.39
2023-03-27T06:48:22.514Z,9.63
2023-03-27T06:51:27.031Z,9.43
2023-03-27T06:54:29.507Z,9.44
2023-03-27T06:57:31.712Z,9.53
2023-03-27T07:00:35.562Z,9.68
2023-03-27T07:03:38.941Z,8.31
2023-03-27T07:06:40.952Z,7.80
2023-03-27T07:09:42.948Z,7.86
2023-03-27T07:12:51.197Z,7.54
2023-03-27T07:15:53.254Z,7.78
2023-03-27T07:18:59.428Z,7.52
2023-03-27T07:22:03.293Z,7.43
2023-03-27T07:25:06.661Z,7.57
2023-03-27T07:28:12.550Z,7.67
2023-03-27T07:31:31.600Z,7.66
2023-03-27T07:34:39.806Z,7.73
2023-03-27T07:37:42.853Z,7.78
2023-03-27T07:40:46.623Z,8.04
2023-03-27T07:43:48.764Z,7.88
2023-03-27T07:46:52.849Z,8.07
2023-03-27T07:49:56.331Z,7.75
2023-03-27T07:52:58.385Z,7.71
2023-03-27T07:56:00.511Z,7.65
2023-03-27T07:59:02.486Z,7.89
2023-03-27T08:02:05.868Z,7.53
2023-03-27T08:05:11.458Z,7.91
2023-03-27T08:08:13.512Z,7.62
2023-03-27T08:11:27.231Z,7.76
2023-03-27T08:14:33.275Z,7.58
2023-03-27T08:17:36.170Z,7.75
2023-03-27T08:20:39.781Z,7.54
2023-03-27T08:23:43.828Z,7.54
2023-03-27T08:26:46.645Z,7.61
2023-03-27T08:29:49.372Z,7.46
2023-03-27T08:32:51.840Z,7.57
2023-03-27T08:35:59.355Z,7.73
2023-03-27T08:39:02.804Z,7.59
2023-03-27T08:42:13.953Z,8.05
2023-03-27T08:45:21.025Z,7.72
2023-03-27T08:48:28.762Z,7.71
2023-03-27T08:51:37.353Z,7.63
2023-03-27T08:54:40.412Z,7.95
2023-03-27T08:57:43.980Z,7.79
2023-03-27T09:00:52.882Z,7.74
2023-03-27T09:04:03.041Z,7.85
2023-03-27T09:07:11.724Z,8.00
2023-03-27T09:10:21.562Z,7.95
2023-03-27T09:13:30.745Z,8.10
2023-03-27T09:16:35.968Z,7.80
2023-03-27T09:19:46.238Z,7.66
2023-03-27T09:22:54.552Z,7.74
2023-03-27T09:26:00.158Z,7.78
2023-03-27T09:29:05.218Z,7.70
2023-03-27T09:32:14.344Z,7.76
2023-03-27T09:35:19.205Z,7.64
2023-03-27T09:38:30.042Z,7.70
2023-03-27T09:41:37.756Z,8.05
2023-03-27T09:44:42.622Z,7.96
2023-03-27T09:47:52.132Z,7.63
2023-03-27T09:50:54.477Z,7.79
2023-03-27T09:53:59.267Z,7.48
2023-03-27T09:57:07.216Z,7.58
2023-03-27T10:00:27.815Z,7.63
2023-03-27T10:03:37.880Z,7.78
2023-03-27T10:06:44.775Z,7.50
2023-03-27T10:10:04.147Z,7.53
2023-03-27T10:13:09.681Z,7.44
2023-03-27T10:16:12.088Z,7.65
2023-03-27T10:19:23.681Z,7.30
2023-03-27T10:22:29.689Z,7.37
2023-03-27T10:25:34.560Z,7.79
2023-03-27T10:28:39.175Z,7.60
2023-03-27T10:31:50.190Z,7.55
2023-03-27T10:34:54.124Z,7.60
2023-03-27T10:37:56.692Z,7.54
2023-03-27T10:41:04.231Z,7.49
2023-03-27T10:44:14.100Z,7.93
2023-03-27T10:47:19.172Z,7.79
2023-03-27T10:50:24.734Z,7.57
2023-03-27T10:53:37.339Z,7.56
2023-03-27T10:56:51.710Z,7.89
2023-03-27T10:59:59.693Z,7.82
2023-03-27T11:03:11.635Z,7.30
2023-03-27T11:06:16.919Z,7.43
2023-03-27T11:09:24.584Z,7.53
2023-03-27T11:12:32.091Z,7.79
2023-03-27T11:15:38.377Z,7.49
2023-03-27T11:18:45.674Z,7.70
2023-03-27T11:21:53.045Z,7.86
2023-03-27T11:25:00.821Z,7.62
2023-03-27T11:28:14.233Z,7.73
2023-03-27T11:31:38.262Z,7.92
2023-03-27T11:34:48.453Z,7.93
2023-03-27T11:37:57.414Z,8.19
2023-03-27T11:41:00.089Z,8.37
2023-03-27T11:44:04.227Z,8.30
2023-03-27T11:47:26.829Z,8.36
2023-03-27T11:50:36.665Z,8.60
2023-03-27T11:53:52.105Z,8.55
2023-03-27T11:56:55.987Z,8.91
2023-03-27T12:00:18.376Z,8.33
2023-03-27T12:03:34.886Z,8.47
2023-03-27T12:06:47.508Z,8.77
2023-03-27T12:10:04.964Z,8.50
2023-03-27T12:13:41.136Z,8.81
2023-03-27T12:17:00.325Z,8.85
2023-03-27T12:20:28.576Z,8.72
2023-03-27T12:23:54.231Z,8.93
2023-03-27T12:27:23.589Z,8.62
2023-03-27T12:30:35.557Z,8.62
2023-03-27T12:33:50.846Z,8.85
2023-03-27T12:36:53.727Z,8.21
2023-03-27T12:39:59.176Z,8.18
2023-03-27T12:43:10.662Z,8.08
2023-03-27T12:46:30.566Z,8.12
2023-03-27T12:49:47.946Z,7.92
2023-03-27T12:52:53.363Z,7.83
2023-03-27T12:56:34.864Z,7.48
2023-03-27T12:59:39.530Z,7.31
2023-03-27T13:03:03.194Z,7.33
2023-03-27T13:06:27.272Z,7.33
2023-03-27T13:09:47.039Z,7.09
2023-03-27T13:13:05.852Z,7.19
2023-03-27T13:16:15.566Z,7.41
2023-03-27T13:19:34.266Z,7.01
2023-03-27T13:22:54.783Z,7.30
2023-03-27T13:26:14.504Z,6.76
2023-03-27T13:29:20.872Z,6.97
2023-03-27T13:32:36.598Z,6.30
2023-03-27T13:40:07.999Z,6.49
2023-03-27T13:43:21.824Z,6.48
2023-03-27T13:46:29.483Z,6.26
2023-03-27T13:49:49.128Z,6.27
2023-03-27T13:53:16.593Z,6.11
2023-03-27T14:13:40.169Z,6.08
2023-03-27T14:16:56.779Z,6.13
2023-03-27T14:20:15.163Z,6.03
2023-03-27T14:26:25.757Z,5.74
2023-03-27T14:29:29.728Z,5.63
2023-03-27T14:32:31.787Z,5.58
2023-03-27T14:35:36.533Z,5.54
2023-03-27T14:38:38.531Z,5.50
2023-03-27T14:41:46.202Z,5.50
2023-03-27T14:44:49.522Z,5.63
2023-03-27T14:47:54.453Z,5.59
2023-03-27T14:51:04.477Z,5.44
2023-03-27T14:54:10.690Z,5.59
2023-03-27T14:57:14.471Z,5.58
2023-03-27T15:00:21.520Z,5.53
2023-03-27T15:03:26.626Z,5.47
2023-03-27T15:06:29.510Z,5.35
2023-03-27T15:09:31.592Z,5.23
2023-03-27T15:12:34.235Z,5.24
2023-03-27T15:15:40.861Z,5.12
2023-03-27T15:18:56.526Z,4.98
2023-03-27T15:22:03.123Z,5.01
2023-03-27T15:25:08.794Z,4.87
2023-03-27T15:28:17.764Z,4.84
2023-03-27T15:31:21.477Z,4.87
2023-03-27T15:34:25.598Z,4.78
2023-03-27T15:37:29.394Z,4.73
2023-03-27T15:40:36.947Z,4.61
2023-03-27T15:43:39.869Z,4.64
2023-03-27T15:46:50.159Z,4.62
2023-03-27T15:50:15.029Z,4.58
2023-03-27T15:53:30.474Z,4.66
2023-03-27T15:56:40.785Z,4.54
2023-03-27T15:59:51.886Z,4.65
2023-03-27T16:02:56.946Z,4.70
2023-03-27T16:06:00.699Z,4.69
2023-03-27T16:09:05.464Z,4.68
2023-03-27T16:12:12.385Z,4.63
2023-03-27T16:15:28.494Z,4.64
2023-03-27T16:18:34.676Z,4.68
2023-03-27T16:21:37.089Z,4.66
2023-03-27T16:24:41.658Z,4.63
2023-03-27T16:27:48.590Z,4.62
2023-03-27T16:30:52.030Z,4.62
2023-03-27T16:33:56.014Z,4.64
2023-03-27T16:36:59.816Z,4.65
2023-03-27T16:40:05.983Z,4.65
2023-03-27T16:43:08.690Z,4.66
2023-03-27T16:46:17.179Z,4.69
2023-03-27T16:49:21.021Z,4.70
2023-03-27T16:52:23.232Z,4.67
2023-03-27T16:55:26.164Z,4.73
2023-03-27T16:58:28.181Z,4.69
2023-03-27T17:01:30.904Z,4.72
2023-03-27T17:04:36.147Z,4.66
2023-03-27T17:07:41.009Z,4.66
2023-03-27T17:10:43.679Z,4.67
2023-03-27T17:13:46.832Z,4.49
2023-03-27T17:16:49.243Z,4.65
2023-03-27T17:19:52.844Z,4.58
2023-03-27T17:22:56.150Z,4.55
2023-03-27T17:25:59.953Z,4.53
2023-03-27T17:29:05.367Z,4.49
2023-03-27T17:32:07.658Z,4.39
2023-03-27T17:35:12.731Z,4.35
2023-03-27T17:38:15.560Z,4.34
2023-03-27T17:41:19.322Z,4.25
2023-03-27T17:44:24.835Z,4.17
2023-03-27T17:47:27.534Z,4.17
2023-03-27T17:50:32.248Z,4.11
2023-03-27T17:53:34.831Z,4.19
2023-03-27T17:56:38.580Z,4.04
2023-03-27T17:59:41.677Z,3.90
2023-03-27T18:02:44.890Z,3.99
2023-03-27T18:05:49.349Z,3.99
2023-03-27T18:08:51.539Z,3.98
2023-03-27T18:11:54.363Z,3.90
2023-03-27T18:14:57.028Z,3.84
2023-03-27T18:18:00.329Z,3.78
2023-03-27T18:21:08.338Z,3.76
2023-03-27T18:24:11.632Z,3.83
2023-03-27T18:27:16.637Z,3.78
2023-03-27T18:30:21.865Z,3.77
2023-03-27T18:33:24.781Z,3.71
2023-03-27T18:36:29.285Z,3.84
2023-03-27T18:39:37.495Z,3.67
2023-03-27T18:42:47.777Z,3.71
2023-03-27T18:45:57.246Z,3.70
2023-03-27T18:49:10.288Z,3.58
2023-03-27T18:52:23.897Z,3.50
2023-03-27T18:55:27.749Z,3.62
2023-03-27T18:58:31.472Z,3.68
2023-03-27T19:01:35.070Z,3.71
2023-03-27T19:04:39.190Z,3.71
2023-03-27T19:07:44.322Z,3.68
2023-03-27T19:10:49.251Z,3.57
2023-03-27T19:13:55.697Z,3.85
2023-03-27T19:16:58.409Z,3.83
2023-03-27T19:20:01.368Z,3.86
2023-03-27T19:23:06.369Z,3.79
2023-03-27T19:26:11.632Z,3.68
2023-03-27T19:29:16.946Z,3.76
2023-03-27T19:32:23.852Z,3.75
2023-03-27T19:35:27.481Z,3.84
2023-03-27T19:38:32.649Z,3.74
2023-03-27T19:41:37.036Z,3.89
2023-03-27T19:44:40.452Z,3.83
2023-03-27T19:47:43.970Z,3.84
2023-03-27T19:50:49.477Z,3.43
2023-03-27T19:53:55.955Z,3.65
2023-03-27T19:57:00.585Z,3.82
2023-03-27T20:00:07.563Z,3.73
2023-03-27T20:03:13.577Z,3.99
2023-03-27T20:06:19.434Z,4.63
2023-03-27T20:09:27.366Z,5.06
2023-03-27T20:12:33.045Z,5.28
2023-03-27T20:15:40.398Z,5.29
2023-03-27T20:18:43.408Z,5.40
2023-03-27T20:21:46.582Z,5.67
2023-03-27T20:24:50.959Z,5.83
2023-03-27T20:27:53.165Z,5.76
2023-03-27T20:31:02.068Z,4.77
2023-03-27T20:34:06.074Z,4.40
2023-03-27T20:37:12.107Z,4.25
2023-03-27T20:40:16.457Z,4.13
2023-03-27T20:43:19.600Z,4.19
2023-03-27T20:46:22.124Z,4.20
2023-03-27T20:52:29.888Z,4.41
2023-03-27T20:55:37.539Z,4.36
2023-03-27T20:58:44.386Z,4.36
2023-03-27T21:01:46.894Z,4.53
2023-03-27T21:04:48.954Z,4.59
2023-03-27T21:07:52.705Z,4.54
2023-03-27T21:10:55.980Z,4.65
2023-03-27T21:13:57.857Z,4.65
2023-03-27T21:17:01.168Z,4.69
2023-03-27T21:20:04.798Z,4.68
2023-03-27T21:23:07.618Z,4.75
2023-03-27T21:26:11.084Z,4.78
2023-03-27T21:29:14.103Z,4.77
2023-03-27T21:32:16.667Z,4.80
2023-03-27T21:35:18.705Z,4.75
2023-03-27T21:38:21.607Z,4.76
2023-03-27T21:41:26.098Z,5.00
2023-03-27T21:44:28.035Z,5.21
2023-03-27T21:47:44.570Z,5.16
2023-03-27T21:50:49.236Z,5.00
2023-03-27T21:53:53.215Z,5.19
2023-03-27T21:56:56.514Z,5.40
2023-03-27T21:59:58.544Z,5.52
2023-03-27T22:03:00.413Z,5.64
2023-03-27T22:09:12.494Z,5.72
2023-03-27T22:12:16.805Z,5.67
2023-03-27T22:15:18.779Z,5.59
2023-03-27T22:18:21.661Z,5.55
2023-03-27T22:21:25.884Z,5.59
2023-03-27T22:24:28.488Z,5.59
2023-03-27T22:27:31.828Z,5.61
2023-03-27T22:30:33.883Z,5.60
2023-03-27T22:33:36.578Z,5.69
2023-03-27T22:36:38.569Z,5.52
2023-03-27T22:39:40.507Z,5.51
2023-03-27T22:42:43.723Z,5.44
2023-03-27T22:45:45.571Z,5.43
2023-03-27T22:48:53.101Z,5.49
2023-03-27T22:51:55.065Z,5.48
2023-03-27T22:54:57.399Z,5.47
2023-03-27T22:58:00.716Z,5.41
2023-03-27T23:01:04.643Z,5.40
2023-03-27T23:04:06.563Z,5.44
2023-03-27T23:07:10.032Z,5.38
2023-03-27T23:10:11.896Z,5.26
2023-03-27T23:13:15.277Z,5.17
2023-03-27T23:16:17.390Z,5.18
2023-03-27T23:19:19.223Z,5.08
2023-03-27T23:22:21.095Z,4.99
2023-03-27T23:25:23.222Z,5.05
2023-03-27T23:28:29.459Z,4.97
2023-03-27T23:31:32.057Z,4.97
2023-03-27T23:34:33.901Z,4.84
2023-03-27T23:37:36.684Z,4.83
2023-03-27T23:40:38.933Z,4.78
2023-03-27T23:43:42.702Z,4.77
2023-03-27T23:46:47.605Z,4.77
2023-03-27T23:49:50.350Z,4.72
2023-03-27T23:52:52.157Z,4.64
2023-03-27T23:55:54.540Z,4.58
2023-03-27T23:58:58.602Z,4.54
